WOLLASTON LAKE (CZWL)

METAR CZWL 291100Z AUTO 06008KT 9SM BKN120 08/05 A3006
SPECI CZWL 291022Z AUTO 05010G17KT 9SM SCT012 OVC090 08/06 A3003
METAR CZWL 291000Z AUTO 05008KT 010V080 9SM BKN012 BKN017 09/07 A3002
SPECI CZWL 290940Z AUTO 06009G18KT 9SM SCT004 BKN011 BKN017 09/07 A3002
METAR CZWL 290900Z AUTO 03010G17KT 9SM OVC004 09/09 A2999


Test Image



Test Image